Time;durP1;ratioP1;P1;durP2;ratioP2;P2;SDS_P1;SDS_P2;PMS_P1;PMS_P2;Temp;Humidity;BMP_temperature;BMP_pressure;BME280_temperature;BME280_humidity;BME280_pressure;Samples;Min_cycle;Max_cycle;Signal;HPM_P1;HPM_P2
2021/04/11 00:02:18;;;;;;;18.40;16.97;;;10.80;99.90;;;;;;5055340;28;20444;-66
2021/04/11 00:04:45;;;;;;;19.13;17.43;;;10.80;99.90;;;;;;5055126;28;20932;-67
2021/04/11 00:07:11;;;;;;;19.73;17.90;;;10.80;99.90;;;;;;5055154;28;20648;-67
2021/04/11 00:09:37;;;;;;;21.93;19.90;;;10.80;99.90;;;;;;5055293;28;20440;-66
2021/04/11 00:12:03;;;;;;;19.40;17.80;;;10.80;99.90;;;;;;5055087;28;20480;-69
2021/04/11 00:14:30;;;;;;;19.53;17.77;;;10.70;99.90;;;;;;5054974;28;20440;-66
2021/04/11 00:16:56;;;;;;;18.20;16.60;;;10.70;99.90;;;;;;5055068;28;20479;-66
2021/04/11 00:19:22;;;;;;;18.03;16.47;;;10.70;99.90;;;;;;5055117;28;20814;-66
2021/04/11 00:21:49;;;;;;;18.70;17.20;;;10.70;99.90;;;;;;5054992;28;20444;-66
2021/04/11 00:24:15;;;;;;;18.50;17.13;;;10.70;99.90;;;;;;5054616;28;20589;-66
2021/04/11 00:26:42;;;;;;;16.23;15.10;;;10.70;99.90;;;;;;5054873;28;20467;-67
2021/04/11 00:29:08;;;;;;;17.47;16.10;;;10.70;99.90;;;;;;5054785;28;20448;-67
2021/04/11 00:31:34;;;;;;;18.70;17.20;;;10.70;99.90;;;;;;5054557;28;20471;-67
2021/04/11 00:34:00;;;;;;;17.60;16.10;;;10.70;99.90;;;;;;5054540;28;20452;-67
2021/04/11 00:36:26;;;;;;;18.17;16.80;;;10.70;99.90;;;;;;5054911;28;20509;-68
2021/04/11 00:38:53;;;;;;;16.87;15.40;;;10.70;99.90;;;;;;5054659;28;20448;-68
2021/04/11 00:41:24;;;;;;;17.93;16.33;;;10.70;99.90;;;;;;5054584;28;20448;-68
2021/04/11 00:43:52;;;;;;;17.90;16.27;;;10.70;99.90;;;;;;5054533;28;20462;-70
2021/04/11 00:46:34;;;;;;;18.03;16.40;;;10.70;99.90;;;;;;5054380;28;20490;-67
2021/04/11 00:49:02;;;;;;;17.57;16.27;;;10.70;99.90;;;;;;5054665;28;20456;-68
2021/04/11 00:51:31;;;;;;;16.63;15.30;;;10.70;99.90;;;;;;5054409;28;20483;-71
2021/04/11 00:54:00;;;;;;;15.97;14.77;;;10.70;99.90;;;;;;5054052;28;20929;-71
2021/04/11 00:56:26;;;;;;;18.13;16.63;;;10.70;99.90;;;;;;5054327;28;20464;-71
2021/04/11 00:58:53;;;;;;;17.03;15.73;;;10.70;99.90;;;;;;5054351;28;20448;-67
2021/04/11 01:01:20;;;;;;;16.87;15.40;;;10.70;99.90;;;;;;5054328;28;20804;-70
2021/04/11 01:03:48;;;;;;;17.20;15.90;;;10.70;99.90;;;;;;5054217;28;20440;-70
2021/04/11 01:06:17;;;;;;;16.20;15.10;;;10.80;99.90;;;;;;5054196;28;21236;-71
2021/04/11 01:08:44;;;;;;;17.40;15.87;;;10.70;99.90;;;;;;5054331;28;20447;-69
2021/04/11 01:11:15;;;;;;;16.73;15.23;;;10.80;99.90;;;;;;5052804;28;20496;-70
2021/04/11 01:13:44;;;;;;;16.83;15.53;;;10.80;99.90;;;;;;5053977;28;20486;-69
2021/04/11 01:16:12;;;;;;;16.97;15.73;;;10.80;99.90;;;;;;5054090;28;20460;-70
2021/04/11 01:18:39;;;;;;;16.60;15.40;;;10.80;99.90;;;;;;5054117;28;20440;-69
2021/04/11 01:21:12;;;;;;;16.73;15.43;;;10.80;99.90;;;;;;5053956;28;20451;-69
2021/04/11 01:23:47;;;;;;;16.57;15.40;;;10.80;99.90;;;;;;5053868;28;20785;-70
2021/04/11 01:26:17;;;;;;;15.77;14.53;;;10.80;99.90;;;;;;5053718;28;20460;-69
2021/04/11 01:28:47;;;;;;;16.53;15.20;;;10.80;99.90;;;;;;5053828;28;20447;-70
2021/04/11 01:31:15;;;;;;;16.90;15.77;;;10.80;99.90;;;;;;5053746;28;20537;-70
2021/04/11 01:33:44;;;;;;;16.50;15.33;;;10.80;99.90;;;;;;5053486;28;20463;-70
2021/04/11 01:36:13;;;;;;;16.63;15.30;;;10.80;99.90;;;;;;5053427;28;20880;-69
2021/04/11 01:38:42;;;;;;;16.73;15.60;;;10.80;99.90;;;;;;5053551;28;20452;-69
2021/04/11 01:41:15;;;;;;;16.50;15.20;;;10.80;99.90;;;;;;5053590;28;20448;-69
2021/04/11 01:43:42;;;;;;;20.03;18.30;;;10.90;99.90;;;;;;5053458;28;20444;-68
2021/04/11 01:46:09;;;;;;;19.77;17.80;;;10.90;99.90;;;;;;5053496;28;20524;-69
2021/04/11 01:48:36;;;;;;;16.30;14.97;;;10.90;99.90;;;;;;5053500;28;20444;-69
2021/04/11 01:51:05;;;;;;;16.33;15.23;;;10.90;99.90;;;;;;5053432;28;20479;-68
2021/04/11 01:53:32;;;;;;;17.53;16.00;;;10.90;99.90;;;;;;5053169;28;20444;-69
2021/04/11 01:55:58;;;;;;;17.07;15.87;;;10.90;99.90;;;;;;5053313;28;21000;-69
2021/04/11 01:58:27;;;;;;;16.27;15.07;;;10.80;99.90;;;;;;5053346;28;20521;-69
2021/04/11 02:01:06;;;;;;;17.60;16.40;;;10.90;99.90;;;;;;5053219;28;20455;-69
2021/04/11 02:03:32;;;;;;;15.60;14.50;;;10.90;99.90;;;;;;5053028;28;20913;-69
2021/04/11 02:06:02;;;;;;;16.57;15.37;;;10.80;99.90;;;;;;5053178;28;20467;-69
2021/04/11 02:08:29;;;;;;;18.03;16.23;;;10.90;99.90;;;;;;5053210;28;20455;-69
2021/04/11 02:10:56;;;;;;;17.40;15.83;;;10.80;99.90;;;;;;5052983;28;20487;-68
2021/04/11 02:13:24;;;;;;;16.50;15.30;;;10.80;99.90;;;;;;5052922;28;20868;-69
2021/04/11 02:15:57;;;;;;;17.37;15.97;;;10.70;99.90;;;;;;5052937;28;20456;-68
2021/04/11 02:18:25;;;;;;;20.50;18.80;;;10.50;99.90;;;;;;5053068;28;20447;-69
2021/04/11 02:20:55;;;;;;;22.57;20.27;;;10.20;99.90;;;;;;5052428;28;20479;-69
2021/04/11 02:23:23;;;;;;;20.50;18.53;;;10.10;99.90;;;;;;5052751;28;20445;-69
2021/04/11 02:25:53;;;;;;;25.80;22.60;;;9.80;99.90;;;;;;5052709;28;20480;-68
2021/04/11 02:28:25;;;;;;;27.63;23.80;;;9.50;99.90;;;;;;5052803;28;20444;-69
2021/04/11 02:30:54;;;;;;;26.83;23.73;;;9.20;99.90;;;;;;5052525;28;20448;-69
2021/04/11 02:33:21;;;;;;;26.50;23.73;;;8.90;99.90;;;;;;5052294;28;20446;-68
2021/04/11 02:35:48;;;;;;;31.20;27.47;;;8.80;99.90;;;;;;5052322;28;20479;-69
2021/04/11 02:38:16;;;;;;;28.40;25.50;;;8.70;99.90;;;;;;5052535;28;20459;-68
2021/04/11 02:40:45;;;;;;;26.77;23.67;;;8.50;99.90;;;;;;5052482;28;20494;-68
2021/04/11 02:43:13;;;;;;;23.63;20.87;;;8.30;99.90;;;;;;5052218;28;20448;-69
2021/04/11 02:45:43;;;;;;;20.20;17.70;;;8.20;99.90;;;;;;5052372;28;20460;-68
2021/04/11 02:48:13;;;;;;;24.83;22.37;;;8.00;99.90;;;;;;5052432;28;20444;-68
2021/04/11 02:50:42;;;;;;;26.30;23.07;;;7.90;99.90;;;;;;5052542;28;20443;-68
2021/04/11 02:53:14;;;;;;;23.07;18.17;;;7.80;99.90;;;;;;5052134;28;20444;-69
2021/04/11 02:55:42;;;;;;;18.17;16.20;;;7.70;99.90;;;;;;5052188;28;20463;-68
2021/04/11 02:58:10;;;;;;;16.50;13.83;;;7.60;99.90;;;;;;5052196;28;20798;-68
2021/04/11 03:00:40;;;;;;;18.57;14.77;;;7.50;99.90;;;;;;5052123;28;20506;-68
2021/04/11 03:03:06;;;;;;;15.23;13.57;;;7.40;99.90;;;;;;5051874;28;20444;-68
2021/04/11 03:05:32;;;;;;;14.40;12.87;;;7.40;99.90;;;;;;5052131;28;20471;-68
2021/04/11 03:08:02;;;;;;;13.03;11.67;;;7.30;99.90;;;;;;5051993;28;20454;-68
2021/04/11 03:10:38;;;;;;;15.10;13.60;;;7.20;99.90;;;;;;5052150;28;20793;-68
2021/04/11 03:13:07;;;;;;;9.17;8.27;;;7.20;99.90;;;;;;5051655;28;20475;-69
2021/04/11 03:15:35;;;;;;;11.60;10.47;;;7.10;99.90;;;;;;5051810;28;20460;-68
2021/04/11 03:18:03;;;;;;;12.53;11.13;;;7.00;99.90;;;;;;5051735;28;20451;-69
2021/04/11 03:20:32;;;;;;;10.13;9.10;;;6.90;99.90;;;;;;5051742;28;20450;-69
2021/04/11 03:23:00;;;;;;;13.27;10.73;;;6.90;99.90;;;;;;5051615;28;20829;-69
2021/04/11 03:25:27;;;;;;;13.83;12.30;;;6.80;99.90;;;;;;5051592;28;20459;-68
2021/04/11 03:28:01;;;;;;;11.53;10.33;;;6.70;99.90;;;;;;5051623;28;20444;-68
2021/04/11 03:30:30;;;;;;;13.10;11.90;;;6.70;99.90;;;;;;5051533;28;20444;-68
2021/04/11 03:33:01;;;;;;;13.83;12.53;;;6.60;99.90;;;;;;5050662;28;20530;-69
2021/04/11 03:35:31;;;;;;;13.77;12.27;;;6.50;99.90;;;;;;5051391;28;20487;-69
2021/04/11 03:38:03;;;;;;;13.70;11.90;;;6.60;99.90;;;;;;5051463;28;20506;-70
2021/04/11 03:40:31;;;;;;;14.50;13.00;;;6.50;99.90;;;;;;5051483;28;20455;-69
2021/04/11 03:43:02;;;;;;;13.50;11.67;;;6.40;99.90;;;;;;5051432;28;20451;-69
2021/04/11 03:45:31;;;;;;;13.20;12.00;;;6.40;99.90;;;;;;5051291;28;20562;-69
2021/04/11 03:48:03;;;;;;;12.00;10.90;;;6.40;99.90;;;;;;5051558;28;20485;-69
2021/04/11 03:50:32;;;;;;;15.00;13.30;;;6.30;99.90;;;;;;5051396;28;20448;-70
2021/04/11 03:53:03;;;;;;;15.50;12.90;;;6.30;99.90;;;;;;5051148;28;21001;-69
2021/04/11 03:55:33;;;;;;;13.20;12.07;;;6.20;99.90;;;;;;5051246;28;20521;-69
2021/04/11 03:58:04;;;;;;;13.40;12.20;;;6.10;99.90;;;;;;5051473;28;20451;-69
2021/04/11 04:00:33;;;;;;;12.53;11.43;;;6.00;99.90;;;;;;5051381;28;20475;-69
2021/04/11 04:03:06;;;;;;;14.13;12.60;;;5.90;99.90;;;;;;5051097;28;20436;-69
2021/04/11 04:05:34;;;;;;;14.20;12.70;;;5.90;99.90;;;;;;5051286;28;20464;-70
2021/04/11 04:08:04;;;;;;;11.97;10.80;;;6.00;99.90;;;;;;5051366;28;20513;-69
2021/04/11 04:10:33;;;;;;;8.57;7.77;;;5.90;99.90;;;;;;5051174;28;20447;-70
2021/04/11 04:13:32;;;;;;;9.53;8.10;;;5.80;99.90;;;;;;5050929;28;21023;-69
2021/04/11 04:16:16;;;;;;;8.20;7.40;;;5.70;99.90;;;;;;5051002;28;20464;-69
2021/04/11 04:18:52;;;;;;;8.37;7.57;;;5.60;99.90;;;;;;5051124;28;20451;-69
2021/04/11 04:21:32;;;;;;;8.50;7.53;;;5.60;99.90;;;;;;5051160;28;20459;-70
2021/04/11 04:24:09;;;;;;;6.20;5.70;;;5.50;99.90;;;;;;5050996;28;20444;-71
2021/04/11 04:26:43;;;;;;;9.90;9.00;;;5.50;99.90;;;;;;5050719;28;20464;-69
2021/04/11 04:29:32;;;;;;;9.60;8.80;;;5.40;99.90;;;;;;5050864;28;20456;-69
2021/04/11 04:32:13;;;;;;;11.20;10.20;;;5.40;99.90;;;;;;5050864;28;20490;-70
2021/04/11 04:34:44;;;;;;;10.37;9.47;;;5.40;99.90;;;;;;5050602;28;20462;-70
2021/04/11 04:37:18;;;;;;;11.80;10.80;;;5.40;99.90;;;;;;5050819;28;20484;-70
2021/04/11 04:39:53;;;;;;;12.37;11.33;;;5.50;99.90;;;;;;5051079;28;20782;-70
2021/04/11 04:42:26;;;;;;;13.50;12.20;;;5.50;99.90;;;;;;5050906;28;20439;-70
2021/04/11 04:45:05;;;;;;;13.60;12.40;;;5.40;99.90;;;;;;5052582;28;20440;-70
2021/04/11 04:47:41;;;;;;;13.10;12.00;;;5.40;99.90;;;;;;5054720;28;20444;-70
2021/04/11 04:50:14;;;;;;;13.53;12.43;;;5.40;99.90;;;;;;5054683;28;20513;-70
2021/04/11 04:52:45;;;;;;;13.57;12.27;;;5.40;99.90;;;;;;5054256;28;20479;-72
2021/04/11 04:55:17;;;;;;;13.90;12.70;;;5.40;99.90;;;;;;5054465;28;20809;-70
2021/04/11 04:57:46;;;;;;;14.33;13.17;;;5.40;99.90;;;;;;5054618;28;20797;-70
2021/04/11 05:00:17;;;;;;;14.17;13.07;;;5.20;99.90;;;;;;5054429;28;20489;-70
2021/04/11 05:02:48;;;;;;;16.40;14.97;;;5.20;99.90;;;;;;5054274;28;20450;-70
2021/04/11 05:05:17;;;;;;;14.20;13.00;;;5.20;99.90;;;;;;5054303;28;20486;-71
2021/04/11 05:07:49;;;;;;;16.83;15.23;;;5.10;99.90;;;;;;5054321;28;20487;-70
2021/04/11 05:10:20;;;;;;;16.83;15.23;;;5.10;99.90;;;;;;5054196;28;20447;-70
2021/04/11 05:12:51;;;;;;;16.93;15.37;;;5.00;99.90;;;;;;5053973;28;20487;-71
2021/04/11 05:15:21;;;;;;;16.90;15.30;;;5.10;99.90;;;;;;5054191;28;20464;-71
2021/04/11 05:17:53;;;;;;;16.57;15.07;;;5.00;99.90;;;;;;5054098;28;20450;-71
2021/04/11 05:20:25;;;;;;;16.17;14.77;;;5.10;99.90;;;;;;5054191;28;20791;-71
2021/04/11 05:22:53;;;;;;;18.10;15.80;;;5.10;99.90;;;;;;5053836;28;20485;-70
2021/04/11 05:25:33;;;;;;;15.90;14.50;;;5.20;99.90;;;;;;5053657;28;20472;-70
2021/04/11 05:28:06;;;;;;;15.97;14.47;;;5.20;99.90;;;;;;5053880;28;20479;-70
2021/04/11 05:30:38;;;;;;;17.57;15.97;;;5.10;99.90;;;;;;5053846;28;20444;-71
2021/04/11 05:33:05;;;;;;;20.50;18.57;;;5.10;99.90;;;;;;5053628;28;20550;-71
2021/04/11 05:35:33;;;;;;;19.70;17.77;;;5.10;99.90;;;;;;5053576;28;20472;-70
2021/04/11 05:38:14;;;;;;;20.00;18.10;;;5.10;99.90;;;;;;5053677;28;20517;-70
2021/04/11 05:40:43;;;;;;;20.00;18.20;;;5.00;99.90;;;;;;5053709;28;20444;-71
2021/04/11 05:43:17;;;;;;;20.90;19.00;;;5.00;99.90;;;;;;5053588;28;20453;-71
2021/04/11 05:45:52;;;;;;;24.20;21.90;;;5.00;99.90;;;;;;5053657;28;20591;-71
2021/04/11 05:48:24;;;;;;;27.47;24.70;;;5.00;99.90;;;;;;5053615;28;20444;-71
2021/04/11 05:51:00;;;;;;;25.73;23.20;;;4.90;99.90;;;;;;5053515;28;20455;-70
2021/04/11 05:53:33;;;;;;;26.60;23.80;;;4.90;99.90;;;;;;5053356;28;20440;-71
2021/04/11 05:56:03;;;;;;;27.17;22.73;;;4.90;99.90;;;;;;5052611;28;20460;-72
2021/04/11 05:58:35;;;;;;;25.00;22.47;;;4.80;99.90;;;;;;5053273;28;20444;-71
2021/04/11 06:01:07;;;;;;;23.27;20.80;;;4.80;99.90;;;;;;5053345;28;20445;-71
2021/04/11 06:03:36;;;;;;;23.63;20.57;;;4.70;99.90;;;;;;5052934;28;20476;-71
2021/04/11 06:06:12;;;;;;;27.20;19.90;;;4.70;99.90;;;;;;5053162;28;20467;-72
2021/04/11 06:08:45;;;;;;;24.57;21.97;;;4.80;99.90;;;;;;5053224;28;20440;-72
2021/04/11 06:11:18;;;;;;;22.93;19.47;;;4.80;99.90;;;;;;5053014;28;20443;-71
2021/04/11 06:13:48;;;;;;;21.43;19.20;;;4.90;99.90;;;;;;5052930;28;20817;-71
2021/04/11 06:16:20;;;;;;;25.30;22.07;;;4.80;99.90;;;;;;5053013;28;21083;-71
2021/04/11 06:18:50;;;;;;;21.00;18.70;;;4.80;99.90;;;;;;5053088;28;20448;-71
2021/04/11 06:21:25;;;;;;;19.80;17.80;;;4.70;99.90;;;;;;5053123;28;20499;-70
2021/04/11 06:23:56;;;;;;;18.93;16.37;;;4.70;99.90;;;;;;5052751;28;20447;-71
2021/04/11 06:26:32;;;;;;;17.93;16.27;;;4.80;99.90;;;;;;5052850;28;20475;-71
2021/04/11 06:29:05;;;;;;;16.83;15.23;;;4.70;99.90;;;;;;5052910;28;20451;-70
2021/04/11 06:31:36;;;;;;;17.13;15.33;;;4.80;99.90;;;;;;5053104;28;20483;-71
2021/04/11 06:34:07;;;;;;;18.50;16.70;;;4.80;99.90;;;;;;5052819;28;20456;-70
2021/04/11 06:36:36;;;;;;;16.87;15.10;;;4.80;99.90;;;;;;5052591;28;20505;-70
2021/04/11 06:39:08;;;;;;;16.67;14.97;;;4.70;99.90;;;;;;5052332;28;20452;-69
2021/04/11 06:41:57;;;;;;;17.83;16.13;;;4.70;99.90;;;;;;5052318;28;20854;-69
2021/04/11 06:44:59;;;;;;;19.07;16.70;;;4.70;99.90;;;;;;5052283;28;20440;-70
2021/04/11 06:47:56;;;;;;;19.03;17.30;;;4.70;99.90;;;;;;5052401;28;20444;-70
2021/04/11 06:50:37;;;;;;;19.00;17.00;;;4.80;99.90;;;;;;5052388;28;20490;-69
2021/04/11 06:53:32;;;;;;;18.43;16.53;;;4.80;99.90;;;;;;5052076;28;20482;-70
2021/04/11 06:56:29;;;;;;;20.77;17.20;;;4.90;99.90;;;;;;5052175;28;20518;-70
2021/04/11 06:59:08;;;;;;;18.53;16.60;;;4.90;99.90;;;;;;5047827;28;21007;-69
2021/04/11 07:02:13;;;;;;;19.87;17.87;;;4.80;99.90;;;;;;5052149;28;20448;-70
2021/04/11 07:05:01;;;;;;;19.43;17.63;;;4.80;99.90;;;;;;5039781;28;20451;-69
2021/04/11 07:08:01;;;;;;;18.70;16.70;;;4.70;99.90;;;;;;5045278;28;20475;-70
2021/04/11 07:10:52;;;;;;;15.90;14.50;;;4.80;99.90;;;;;;5052019;28;21150;-69
2021/04/11 07:13:44;;;;;;;19.20;17.40;;;4.80;99.90;;;;;;5047989;28;20860;-69
2021/04/11 07:16:31;;;;;;;18.40;16.77;;;4.80;99.90;;;;;;5051765;28;20460;-69
2021/04/11 07:19:30;;;;;;;14.70;13.60;;;4.90;99.90;;;;;;5051755;28;20444;-70
2021/04/11 07:22:29;;;;;;;14.63;13.43;;;5.00;99.90;;;;;;5051494;28;20467;-68
2021/04/11 07:25:15;;;;;;;12.17;11.27;;;5.00;99.90;;;;;;5051392;28;20852;-70
2021/04/11 07:27:56;;;;;;;14.53;13.33;;;4.90;99.90;;;;;;5051712;28;20448;-69
2021/04/11 07:30:34;;;;;;;13.93;12.67;;;4.90;99.90;;;;;;5051687;28;20448;-68
2021/04/11 07:33:30;;;;;;;14.93;13.80;;;4.90;99.90;;;;;;5051208;28;21013;-69
2021/04/11 07:36:38;;;;;;;17.37;15.80;;;4.80;99.90;;;;;;5051344;28;20495;-69
2021/04/11 07:39:17;;;;;;;16.67;15.17;;;4.90;99.90;;;;;;5046263;28;20463;-69
2021/04/11 07:42:07;;;;;;;17.00;15.43;;;4.90;99.90;;;;;;5051452;28;20471;-70
2021/04/11 07:45:00;;;;;;;15.93;14.40;;;4.90;99.90;;;;;;5051237;28;20518;-70
2021/04/11 07:48:06;;;;;;;16.53;15.13;;;4.80;99.90;;;;;;5051512;28;20470;-70
2021/04/11 07:50:50;;;;;;;14.70;13.50;;;4.70;99.90;;;;;;5039318;28;20434;-70
2021/04/11 07:53:47;;;;;;;14.07;12.67;;;4.70;99.90;;;;;;5051075;28;20483;-70
2021/04/11 07:56:22;;;;;;;13.03;11.90;;;4.70;99.90;;;;;;5051035;28;20924;-69
2021/04/11 07:59:16;;;;;;;12.17;10.90;;;4.80;99.90;;;;;;5051247;28;20440;-69
2021/04/11 08:02:17;;;;;;;12.77;11.50;;;4.70;99.90;;;;;;5051240;28;20929;-69
2021/04/11 08:05:20;;;;;;;10.43;9.40;;;4.70;99.90;;;;;;5051074;28;20803;-70
2021/04/11 08:07:58;;;;;;;9.97;9.00;;;4.80;99.90;;;;;;5051242;28;20440;-70
2021/04/11 08:10:49;;;;;;;8.57;7.77;;;4.90;99.90;;;;;;5051235;28;20447;-69
2021/04/11 08:13:41;;;;;;;7.23;6.60;;;4.90;99.90;;;;;;5051025;28;20480;-70
2021/04/11 08:16:25;;;;;;;6.60;6.10;;;4.90;99.90;;;;;;5050943;28;20521;-69
2021/04/11 08:19:19;;;;;;;7.30;6.70;;;4.80;99.90;;;;;;5051422;28;20444;-69
2021/04/11 08:21:51;;;;;;;7.20;6.50;;;4.80;99.90;;;;;;5033918;28;20451;-69
2021/04/11 08:24:39;;;;;;;6.87;5.93;;;4.80;99.90;;;;;;5054820;28;20459;-69
2021/04/11 08:27:35;;;;;;;5.30;4.90;;;4.70;99.90;;;;;;5055034;28;20464;-69
2021/04/11 08:30:13;;;;;;;7.67;7.07;;;4.70;99.90;;;;;;5054944;28;20937;-69
2021/04/11 08:33:15;;;;;;;7.40;6.80;;;4.70;99.90;;;;;;5054824;28;21008;-68
2021/04/11 08:35:53;;;;;;;7.57;7.10;;;4.70;99.90;;;;;;5054726;28;20981;-69
2021/04/11 08:38:37;;;;;;;7.10;6.60;;;4.80;99.90;;;;;;5054937;28;20439;-70
2021/04/11 08:41:45;;;;;;;5.53;5.07;;;4.80;99.90;;;;;;5054760;28;20473;-69
2021/04/11 08:44:24;;;;;;;4.60;4.20;;;4.80;99.90;;;;;;5054605;28;20451;-69
2021/04/11 08:47:02;;;;;;;6.07;5.57;;;4.80;99.90;;;;;;5054717;28;20467;-69
2021/04/11 08:49:40;;;;;;;6.13;5.73;;;4.80;99.90;;;;;;5054681;28;20490;-69
2021/04/11 08:52:27;;;;;;;7.33;6.87;;;4.90;99.90;;;;;;5054584;28;20490;-68
2021/04/11 08:55:01;;;;;;;7.40;6.87;;;5.00;99.90;;;;;;5054100;28;20454;-69
2021/04/11 08:57:39;;;;;;;6.90;6.60;;;4.90;99.90;;;;;;5054541;28;20439;-69
2021/04/11 09:00:13;;;;;;;6.90;6.60;;;5.00;99.90;;;;;;5054340;28;20444;-69
2021/04/11 09:03:28;;;;;;;8.30;7.80;;;4.80;99.90;;;;;;5054190;28;20462;-67
2021/04/11 09:06:05;;;;;;;7.43;6.80;;;4.80;99.90;;;;;;5054116;28;20464;-69
2021/04/11 09:08:34;;;;;;;7.10;6.70;;;4.80;99.90;;;;;;5054172;28;20867;-69
2021/04/11 09:11:15;;;;;;;7.43;7.03;;;4.90;99.90;;;;;;5054148;28;21006;-68
2021/04/11 09:14:00;;;;;;;7.80;7.30;;;4.90;99.90;;;;;;5054055;28;20436;-70
2021/04/11 09:16:36;;;;;;;8.10;7.70;;;4.90;99.90;;;;;;5054113;28;20456;-69
2021/04/11 09:19:14;;;;;;;8.00;7.57;;;4.80;99.90;;;;;;5054042;28;20435;-69
2021/04/11 09:21:59;;;;;;;8.90;8.30;;;4.80;99.90;;;;;;5053963;28;20486;-69
2021/04/11 09:24:32;;;;;;;8.20;7.70;;;4.90;99.90;;;;;;5053708;28;20502;-70
2021/04/11 09:27:37;;;;;;;7.60;7.20;;;5.10;99.90;;;;;;5053771;28;20464;-70
2021/04/11 09:30:14;;;;;;;6.33;5.93;;;5.20;99.90;;;;;;5053468;28;20440;-68
2021/04/11 09:33:17;;;;;;;6.97;6.73;;;5.20;99.90;;;;;;5053177;28;20532;-69
2021/04/11 09:35:59;;;;;;;7.30;7.00;;;5.10;99.90;;;;;;5053614;28;20479;-69
2021/04/11 09:38:41;;;;;;;7.60;7.20;;;5.20;99.90;;;;;;5053811;28;20936;-68
2021/04/11 09:41:53;;;;;;;10.17;9.57;;;5.20;99.90;;;;;;5053797;28;20448;-69
2021/04/11 09:44:44;;;;;;;9.93;9.43;;;5.20;99.90;;;;;;5053452;28;20455;-68
2021/04/11 09:47:40;;;;;;;10.00;9.50;;;5.20;99.90;;;;;;5053465;28;20468;-69
2021/04/11 09:50:15;;;;;;;11.10;10.50;;;5.10;99.90;;;;;;5044488;28;20448;-69
2021/04/11 09:53:08;;;;;;;10.33;9.67;;;5.10;99.90;;;;;;5053289;28;20581;-70
2021/04/11 09:55:39;;;;;;;9.80;9.10;;;5.20;99.90;;;;;;5053312;28;20977;-69
2021/04/11 09:58:35;;;;;;;9.97;9.37;;;5.40;99.90;;;;;;5053404;28;20444;-70
2021/04/11 10:01:09;;;;;;;11.40;10.70;;;5.20;99.90;;;;;;5053374;28;20443;-70
2021/04/11 10:03:47;;;;;;;10.40;9.70;;;5.20;99.90;;;;;;5052767;28;20444;-69
2021/04/11 10:06:20;;;;;;;11.03;10.33;;;5.20;99.90;;;;;;5052932;28;20468;-70
2021/04/11 10:09:06;;;;;;;10.50;9.90;;;5.10;99.90;;;;;;5053152;28;20451;-70
2021/04/11 10:11:54;;;;;;;11.03;10.23;;;5.20;99.90;;;;;;5052997;28;20813;-70
2021/04/11 10:14:32;;;;;;;10.47;9.87;;;5.10;99.90;;;;;;5052664;28;20445;-70
2021/04/11 10:17:07;;;;;;;11.80;11.00;;;5.10;99.90;;;;;;5052801;28;20460;-68
2021/04/11 10:19:43;;;;;;;14.80;10.37;;;5.10;99.90;;;;;;5052835;28;20501;-68
2021/04/11 10:22:24;;;;;;;10.93;10.30;;;5.20;99.90;;;;;;5052833;28;20436;-68
2021/04/11 10:25:01;;;;;;;10.43;9.83;;;5.00;99.90;;;;;;5052529;28;20948;-68
2021/04/11 10:27:31;;;;;;;10.53;9.93;;;5.00;99.90;;;;;;5052940;28;20443;-69
2021/04/11 10:29:59;;;;;;;15.37;14.17;;;4.90;99.90;;;;;;5052594;28;20452;-68
2021/04/11 10:32:31;;;;;;;13.83;12.73;;;4.90;99.90;;;;;;5052448;28;21081;-69
2021/04/11 10:35:04;;;;;;;14.10;13.10;;;4.90;99.90;;;;;;5052180;28;20455;-68
2021/04/11 10:37:35;;;;;;;13.83;12.83;;;4.90;99.90;;;;;;5052484;28;20456;-68
2021/04/11 10:40:15;;;;;;;13.13;12.13;;;5.20;99.90;;;;;;5052466;28;20440;-68
2021/04/11 10:42:56;;;;;;;12.60;11.80;;;5.40;99.90;;;;;;5051960;28;20451;-68
2021/04/11 10:45:29;;;;;;;12.73;11.93;;;5.40;99.90;;;;;;5052229;28;20459;-68
2021/04/11 10:48:15;;;;;;;11.43;10.80;;;5.40;99.90;;;;;;5052331;28;20451;-68
2021/04/11 10:50:46;;;;;;;8.60;8.10;;;5.40;99.90;;;;;;5052164;28;20448;-68
2021/04/11 10:53:42;;;;;;;10.17;9.67;;;5.30;99.90;;;;;;5051919;28;20848;-68
2021/04/11 10:56:34;;;;;;;11.67;10.87;;;5.40;99.90;;;;;;5045097;28;20471;-68
2021/04/11 10:59:23;;;;;;;11.67;10.97;;;5.50;99.90;;;;;;5052167;28;20440;-68
2021/04/11 11:02:03;;;;;;;11.97;11.27;;;5.60;99.90;;;;;;5052024;28;20459;-68
2021/04/11 11:05:06;;;;;;;10.17;9.67;;;5.50;99.90;;;;;;5051743;28;20440;-68
2021/04/11 11:07:45;;;;;;;10.33;9.63;;;5.60;99.90;;;;;;5050412;28;20463;-68
2021/04/11 11:10:19;;;;;;;10.30;9.60;;;5.50;99.90;;;;;;5051753;28;20443;-68
2021/04/11 11:13:06;;;;;;;14.40;13.70;;;5.40;99.90;;;;;;5051644;28;21008;-67
2021/04/11 11:15:46;;;;;;;15.73;14.93;;;5.40;99.90;;;;;;5051699;28;20533;-68
2021/04/11 11:18:46;;;;;;;14.97;14.27;;;5.40;99.90;;;;;;5051867;28;20443;-68
2021/04/11 11:21:41;;;;;;;14.80;14.10;;;5.40;99.90;;;;;;5051533;28;20983;-68
2021/04/11 11:24:38;;;;;;;12.70;12.20;;;5.20;99.90;;;;;;5049576;28;20882;-68
2021/04/11 11:27:46;;;;;;;12.27;11.67;;;5.10;99.90;;;;;;5051659;28;20821;-68
2021/04/11 11:30:29;;;;;;;14.67;13.87;;;5.40;99.90;;;;;;5037595;28;20447;-68
2021/04/11 11:33:10;;;;;;;13.20;12.60;;;5.50;99.90;;;;;;5051268;28;20567;-68
2021/04/11 11:35:48;;;;;;;16.70;15.70;;;5.50;99.90;;;;;;5051271;28;20992;-68
2021/04/11 11:38:21;;;;;;;18.53;17.43;;;5.60;99.90;;;;;;5051485;28;20447;-68
2021/04/11 11:40:59;;;;;;;17.03;16.20;;;5.70;99.90;;;;;;5051513;28;20444;-68
2021/04/11 11:43:32;;;;;;;17.97;16.97;;;5.60;99.90;;;;;;5051126;28;20443;-68
2021/04/11 11:46:15;;;;;;;18.20;17.20;;;5.90;99.90;;;;;;5051203;28;20966;-68
2021/04/11 11:49:02;;;;;;;15.17;14.17;;;6.10;99.90;;;;;;5051304;28;20444;-68
2021/04/11 11:51:45;;;;;;;19.83;18.30;;;6.10;99.90;;;;;;5051367;28;20440;-68
2021/04/11 11:54:23;;;;;;;17.47;16.47;;;6.00;99.90;;;;;;5050461;28;20462;-68
2021/04/11 11:57:04;;;;;;;18.50;17.43;;;5.90;99.90;;;;;;5051316;28;20840;-68
2021/04/11 11:59:34;;;;;;;18.80;17.30;;;5.80;99.90;;;;;;5051354;28;20451;-68
2021/04/11 12:02:12;;;;;;;20.27;18.27;;;5.70;99.90;;;;;;5051352;28;20444;-68
2021/04/11 12:04:49;;;;;;;9.67;8.67;;;5.60;99.90;;;;;;5050955;28;20506;-68
2021/04/11 12:07:25;;;;;;;9.50;8.80;;;5.50;99.90;;;;;;5051107;28;20505;-68
2021/04/11 12:10:06;;;;;;;9.50;8.80;;;5.50;99.90;;;;;;5051146;28;20455;-68
2021/04/11 12:12:41;;;;;;;9.57;8.97;;;5.50;99.90;;;;;;5051035;28;20541;-68
2021/04/11 12:15:14;;;;;;;10.87;10.07;;;5.70;99.90;;;;;;5050899;28;20823;-68
2021/04/11 12:17:49;;;;;;;9.63;8.93;;;5.80;99.90;;;;;;5051098;28;20448;-68
2021/04/11 12:20:18;;;;;;;11.33;10.53;;;5.90;99.90;;;;;;5051109;28;20447;-68
2021/04/11 12:22:48;;;;;;;12.50;11.57;;;6.30;99.90;;;;;;5050807;28;20930;-68
2021/04/11 12:25:19;;;;;;;10.40;9.60;;;7.10;99.90;;;;;;5050823;28;20464;-68
2021/04/11 12:27:46;;;;;;;13.50;12.50;;;7.60;99.90;;;;;;5050988;28;20471;-68
2021/04/11 12:30:17;;;;;;;17.40;16.40;;;7.70;99.90;;;;;;5050920;28;20574;-68
2021/04/11 12:32:51;;;;;;;20.17;18.73;;;7.70;99.90;;;;;;5050844;28;20479;-68
2021/04/11 12:35:25;;;;;;;18.53;17.23;;;7.40;99.90;;;;;;5073672;23;20483;-67
2021/04/11 12:38:03;;;;;;;17.60;16.50;;;7.10;99.90;;;;;;5030863;28;20452;-69
2021/04/11 12:40:33;;;;;;;17.97;16.77;;;7.00;99.90;;;;;;5031139;28;20444;-68
2021/04/11 12:43:12;;;;;;;16.83;15.83;;;6.90;99.90;;;;;;5030890;28;20449;-69
2021/04/11 12:45:45;;;;;;;16.17;15.17;;;7.00;99.90;;;;;;5030953;28;20461;-69
2021/04/11 12:48:22;;;;;;;16.87;15.77;;;7.20;99.90;;;;;;5030976;28;20441;-69
2021/04/11 12:51:01;;;;;;;17.00;15.90;;;7.30;99.90;;;;;;5031236;28;20452;-69
2021/04/11 12:53:37;;;;;;;17.17;16.00;;;7.40;99.90;;;;;;5030658;28;20483;-69
2021/04/11 12:56:06;;;;;;;19.77;18.10;;;8.00;99.90;;;;;;5030863;28;20468;-68
2021/04/11 12:58:36;;;;;;;18.77;17.53;;;8.70;99.90;;;;;;5030978;28;20444;-68
2021/04/11 13:01:12;;;;;;;17.57;16.57;;;9.40;99.90;;;;;;5030984;28;20445;-68
2021/04/11 13:03:43;;;;;;;20.53;19.20;;;9.50;99.90;;;;;;5030793;28;20437;-68
2021/04/11 13:06:15;;;;;;;20.20;19.00;;;9.10;99.90;;;;;;5033215;28;20465;-68
2021/04/11 13:09:00;;;;;;;18.57;17.57;;;8.80;99.90;;;;;;5034636;28;21002;-68
2021/04/11 13:11:36;;;;;;;18.97;17.70;;;8.60;99.90;;;;;;5034354;28;20453;-69
2021/04/11 13:14:07;;;;;;;19.10;17.97;;;8.40;99.90;;;;;;5033989;28;20484;-67
2021/04/11 13:16:38;;;;;;;19.03;18.03;;;8.00;99.90;;;;;;5034268;28;20469;-69
2021/04/11 13:19:12;;;;;;;18.57;17.37;;;7.80;99.90;;;;;;5034248;28;20475;-68
2021/04/11 13:21:46;;;;;;;17.87;16.80;;;7.60;99.90;;;;;;5034201;28;20449;-69
2021/04/11 13:24:19;;;;;;;18.77;17.77;;;7.60;99.90;;;;;;5033889;28;20445;-68
2021/04/11 13:26:52;;;;;;;18.03;17.13;;;7.30;99.90;;;;;;5034031;28;20469;-67